sensor_id;sensor_type;location;lat;lon;timestamp;P1;durP1;ratioP1;P2;durP2;ratioP2
54641;SDS011;40536;53.194;5.728;2023-06-04T00:01:53;23.95;;;22.10;;
54641;SDS011;40536;53.194;5.728;2023-06-04T00:04:19;18.35;;;16.83;;
54641;SDS011;40536;53.194;5.728;2023-06-04T00:06:45;26.33;;;24.10;;
54641;SDS011;40536;53.194;5.728;2023-06-04T00:09:10;21.48;;;19.52;;
54641;SDS011;40536;53.194;5.728;2023-06-04T00:11:36;25.30;;;23.60;;
54641;SDS011;40536;53.194;5.728;2023-06-04T00:14:02;28.73;;;25.98;;
54641;SDS011;40536;53.194;5.728;2023-06-04T00:16:28;16.55;;;15.15;;
54641;SDS011;40536;53.194;5.728;2023-06-04T00:18:54;19.60;;;17.65;;
54641;SDS011;40536;53.194;5.728;2023-06-04T00:21:22;17.33;;;15.73;;
54641;SDS011;40536;53.194;5.728;2023-06-04T00:23:48;25.17;;;23.08;;
54641;SDS011;40536;53.194;5.728;2023-06-04T00:26:14;17.38;;;15.30;;
54641;SDS011;40536;53.194;5.728;2023-06-04T00:28:39;19.70;;;17.88;;
54641;SDS011;40536;53.194;5.728;2023-06-04T00:31:05;20.15;;;16.63;;
54641;SDS011;40536;53.194;5.728;2023-06-04T00:33:31;19.27;;;17.50;;
54641;SDS011;40536;53.194;5.728;2023-06-04T00:35:57;22.90;;;20.65;;
54641;SDS011;40536;53.194;5.728;2023-06-04T00:38:23;27.63;;;25.25;;
54641;SDS011;40536;53.194;5.728;2023-06-04T00:40:48;25.33;;;23.27;;
54641;SDS011;40536;53.194;5.728;2023-06-04T00:43:14;23.85;;;22.05;;
54641;SDS011;40536;53.194;5.728;2023-06-04T00:45:40;22.00;;;19.95;;
54641;SDS011;40536;53.194;5.728;2023-06-04T00:48:07;20.60;;;18.98;;
54641;SDS011;40536;53.194;5.728;2023-06-04T00:50:32;25.52;;;23.55;;
54641;SDS011;40536;53.194;5.728;2023-06-04T00:53:00;26.80;;;24.80;;
54641;SDS011;40536;53.194;5.728;2023-06-04T00:55:26;22.58;;;20.52;;
54641;SDS011;40536;53.194;5.728;2023-06-04T00:57:53;23.63;;;21.10;;
54641;SDS011;40536;53.194;5.728;2023-06-04T01:00:19;23.25;;;21.08;;
54641;SDS011;40536;53.194;5.728;2023-06-04T01:02:45;20.45;;;18.83;;
54641;SDS011;40536;53.194;5.728;2023-06-04T01:08:34;23.45;;;21.73;;
54641;SDS011;40536;53.194;5.728;2023-06-04T01:11:01;28.67;;;26.67;;
54641;SDS011;40536;53.194;5.728;2023-06-04T01:13:26;29.30;;;26.85;;
54641;SDS011;40536;53.194;5.728;2023-06-04T01:15:52;27.25;;;25.10;;
54641;SDS011;40536;53.194;5.728;2023-06-04T01:18:19;36.97;;;34.03;;
54641;SDS011;40536;53.194;5.728;2023-06-04T01:21:01;56.92;;;53.67;;
54641;SDS011;40536;53.194;5.728;2023-06-04T01:23:46;51.85;;;48.78;;
54641;SDS011;40536;53.194;5.728;2023-06-04T01:26:29;39.17;;;36.28;;
54641;SDS011;40536;53.194;5.728;2023-06-04T01:28:57;27.90;;;25.48;;
54641;SDS011;40536;53.194;5.728;2023-06-04T01:31:25;34.88;;;32.53;;
54641;SDS011;40536;53.194;5.728;2023-06-04T01:33:53;44.10;;;41.05;;
54641;SDS011;40536;53.194;5.728;2023-06-04T01:36:20;39.13;;;36.72;;
54641;SDS011;40536;53.194;5.728;2023-06-04T01:38:46;51.47;;;48.22;;
54641;SDS011;40536;53.194;5.728;2023-06-04T01:41:12;66.53;;;63.00;;
54641;SDS011;40536;53.194;5.728;2023-06-04T01:43:38;48.45;;;45.63;;
54641;SDS011;40536;53.194;5.728;2023-06-04T01:46:03;50.33;;;47.47;;
54641;SDS011;40536;53.194;5.728;2023-06-04T01:48:29;42.17;;;39.35;;
54641;SDS011;40536;53.194;5.728;2023-06-04T01:50:57;36.78;;;34.05;;
54641;SDS011;40536;53.194;5.728;2023-06-04T01:53:22;78.78;;;74.75;;
54641;SDS011;40536;53.194;5.728;2023-06-04T01:55:48;56.90;;;53.80;;
54641;SDS011;40536;53.194;5.728;2023-06-04T01:58:18;52.83;;;49.58;;
54641;SDS011;40536;53.194;5.728;2023-06-04T02:00:48;50.85;;;46.90;;
54641;SDS011;40536;53.194;5.728;2023-06-04T02:03:15;52.53;;;48.80;;
54641;SDS011;40536;53.194;5.728;2023-06-04T02:05:41;65.57;;;61.60;;
54641;SDS011;40536;53.194;5.728;2023-06-04T02:08:09;54.53;;;51.20;;
54641;SDS011;40536;53.194;5.728;2023-06-04T02:10:36;51.30;;;48.13;;
54641;SDS011;40536;53.194;5.728;2023-06-04T02:13:02;41.55;;;38.60;;
54641;SDS011;40536;53.194;5.728;2023-06-04T02:15:29;39.58;;;37.10;;
54641;SDS011;40536;53.194;5.728;2023-06-04T02:18:17;34.22;;;31.58;;
54641;SDS011;40536;53.194;5.728;2023-06-04T02:20:46;34.72;;;32.22;;
54641;SDS011;40536;53.194;5.728;2023-06-04T02:23:15;35.60;;;32.83;;
54641;SDS011;40536;53.194;5.728;2023-06-04T02:25:42;36.65;;;34.17;;
54641;SDS011;40536;53.194;5.728;2023-06-04T02:28:11;38.97;;;35.95;;
54641;SDS011;40536;53.194;5.728;2023-06-04T02:30:37;58.95;;;55.25;;
54641;SDS011;40536;53.194;5.728;2023-06-04T02:33:03;75.53;;;71.03;;
54641;SDS011;40536;53.194;5.728;2023-06-04T02:35:29;63.20;;;59.72;;
54641;SDS011;40536;53.194;5.728;2023-06-04T02:37:56;67.15;;;63.03;;
54641;SDS011;40536;53.194;5.728;2023-06-04T02:40:23;35.17;;;32.33;;
54641;SDS011;40536;53.194;5.728;2023-06-04T02:42:52;28.73;;;26.63;;
54641;SDS011;40536;53.194;5.728;2023-06-04T02:45:18;26.58;;;24.75;;
54641;SDS011;40536;53.194;5.728;2023-06-04T02:47:44;36.08;;;33.38;;
54641;SDS011;40536;53.194;5.728;2023-06-04T02:50:10;34.25;;;31.70;;
54641;SDS011;40536;53.194;5.728;2023-06-04T02:52:36;32.17;;;30.00;;
54641;SDS011;40536;53.194;5.728;2023-06-04T02:55:06;42.40;;;39.63;;
54641;SDS011;40536;53.194;5.728;2023-06-04T02:57:33;42.05;;;39.15;;
54641;SDS011;40536;53.194;5.728;2023-06-04T03:00:00;29.77;;;27.30;;
54641;SDS011;40536;53.194;5.728;2023-06-04T03:02:26;32.30;;;29.80;;
54641;SDS011;40536;53.194;5.728;2023-06-04T03:04:52;38.80;;;36.00;;
54641;SDS011;40536;53.194;5.728;2023-06-04T03:07:20;42.22;;;39.47;;
54641;SDS011;40536;53.194;5.728;2023-06-04T03:09:48;34.45;;;32.13;;
54641;SDS011;40536;53.194;5.728;2023-06-04T03:12:16;39.33;;;36.17;;
54641;SDS011;40536;53.194;5.728;2023-06-04T03:14:42;35.97;;;33.47;;
54641;SDS011;40536;53.194;5.728;2023-06-04T03:17:08;40.80;;;37.95;;
54641;SDS011;40536;53.194;5.728;2023-06-04T03:19:36;39.58;;;36.75;;
54641;SDS011;40536;53.194;5.728;2023-06-04T03:22:03;36.90;;;34.08;;
54641;SDS011;40536;53.194;5.728;2023-06-04T03:24:34;35.88;;;33.35;;
54641;SDS011;40536;53.194;5.728;2023-06-04T03:27:01;29.90;;;27.75;;
54641;SDS011;40536;53.194;5.728;2023-06-04T03:29:28;32.33;;;29.88;;
54641;SDS011;40536;53.194;5.728;2023-06-04T03:31:53;30.75;;;28.38;;
54641;SDS011;40536;53.194;5.728;2023-06-04T03:34:19;29.92;;;27.52;;
54641;SDS011;40536;53.194;5.728;2023-06-04T03:36:45;31.48;;;28.92;;
54641;SDS011;40536;53.194;5.728;2023-06-04T03:39:11;29.83;;;27.63;;
54641;SDS011;40536;53.194;5.728;2023-06-04T03:41:36;28.20;;;25.98;;
54641;SDS011;40536;53.194;5.728;2023-06-04T03:44:02;32.45;;;30.23;;
54641;SDS011;40536;53.194;5.728;2023-06-04T03:46:28;31.17;;;28.88;;
54641;SDS011;40536;53.194;5.728;2023-06-04T03:48:58;30.70;;;28.52;;
54641;SDS011;40536;53.194;5.728;2023-06-04T03:51:24;32.03;;;29.88;;
54641;SDS011;40536;53.194;5.728;2023-06-04T03:53:50;34.10;;;31.85;;
54641;SDS011;40536;53.194;5.728;2023-06-04T03:56:16;34.38;;;31.98;;
54641;SDS011;40536;53.194;5.728;2023-06-04T03:58:41;34.70;;;32.15;;
54641;SDS011;40536;53.194;5.728;2023-06-04T04:01:07;39.00;;;36.40;;
54641;SDS011;40536;53.194;5.728;2023-06-04T04:03:35;43.45;;;40.75;;
54641;SDS011;40536;53.194;5.728;2023-06-04T04:06:01;39.70;;;36.78;;
54641;SDS011;40536;53.194;5.728;2023-06-04T04:08:27;42.20;;;39.30;;
54641;SDS011;40536;53.194;5.728;2023-06-04T04:10:56;41.88;;;39.03;;
54641;SDS011;40536;53.194;5.728;2023-06-04T04:13:22;42.83;;;39.97;;
54641;SDS011;40536;53.194;5.728;2023-06-04T04:15:48;39.30;;;36.65;;
54641;SDS011;40536;53.194;5.728;2023-06-04T04:18:17;39.47;;;36.70;;
54641;SDS011;40536;53.194;5.728;2023-06-04T04:20:47;41.08;;;38.10;;
54641;SDS011;40536;53.194;5.728;2023-06-04T04:23:13;46.25;;;43.22;;
54641;SDS011;40536;53.194;5.728;2023-06-04T04:25:39;49.72;;;46.63;;
54641;SDS011;40536;53.194;5.728;2023-06-04T04:28:06;49.97;;;46.95;;
54641;SDS011;40536;53.194;5.728;2023-06-04T04:30:33;47.13;;;44.05;;
54641;SDS011;40536;53.194;5.728;2023-06-04T04:33:00;49.30;;;46.25;;
54641;SDS011;40536;53.194;5.728;2023-06-04T04:35:26;53.13;;;49.90;;
54641;SDS011;40536;53.194;5.728;2023-06-04T04:37:52;46.72;;;43.33;;
54641;SDS011;40536;53.194;5.728;2023-06-04T04:40:18;47.85;;;44.53;;
54641;SDS011;40536;53.194;5.728;2023-06-04T04:42:44;47.03;;;43.75;;
54641;SDS011;40536;53.194;5.728;2023-06-04T04:45:09;46.00;;;42.85;;
54641;SDS011;40536;53.194;5.728;2023-06-04T04:47:35;24.75;;;22.67;;
54641;SDS011;40536;53.194;5.728;2023-06-04T04:50:02;26.55;;;24.17;;
54641;SDS011;40536;53.194;5.728;2023-06-04T04:52:27;25.45;;;23.42;;
54641;SDS011;40536;53.194;5.728;2023-06-04T04:54:53;25.17;;;23.20;;
54641;SDS011;40536;53.194;5.728;2023-06-04T04:57:21;27.73;;;25.20;;
54641;SDS011;40536;53.194;5.728;2023-06-04T04:59:47;23.48;;;18.20;;
54641;SDS011;40536;53.194;5.728;2023-06-04T05:02:14;20.20;;;18.20;;
54641;SDS011;40536;53.194;5.728;2023-06-04T05:04:40;19.55;;;17.67;;
54641;SDS011;40536;53.194;5.728;2023-06-04T05:07:05;21.77;;;19.73;;
54641;SDS011;40536;53.194;5.728;2023-06-04T05:09:31;20.25;;;18.33;;
54641;SDS011;40536;53.194;5.728;2023-06-04T05:11:57;20.63;;;18.95;;
54641;SDS011;40536;53.194;5.728;2023-06-04T05:14:22;18.00;;;16.15;;
54641;SDS011;40536;53.194;5.728;2023-06-04T05:16:48;16.38;;;14.73;;
54641;SDS011;40536;53.194;5.728;2023-06-04T05:19:15;18.67;;;15.32;;
54641;SDS011;40536;53.194;5.728;2023-06-04T05:21:42;15.20;;;13.70;;
54641;SDS011;40536;53.194;5.728;2023-06-04T05:24:08;15.88;;;13.32;;
54641;SDS011;40536;53.194;5.728;2023-06-04T05:26:35;14.85;;;13.45;;
54641;SDS011;40536;53.194;5.728;2023-06-04T05:29:02;14.43;;;12.98;;
54641;SDS011;40536;53.194;5.728;2023-06-04T05:31:29;13.80;;;11.43;;
54641;SDS011;40536;53.194;5.728;2023-06-04T05:33:58;13.45;;;10.18;;
54641;SDS011;40536;53.194;5.728;2023-06-04T05:36:30;14.73;;;10.73;;
54641;SDS011;40536;53.194;5.728;2023-06-04T05:38:56;9.85;;;8.90;;
54641;SDS011;40536;53.194;5.728;2023-06-04T05:41:28;12.23;;;8.90;;
54641;SDS011;40536;53.194;5.728;2023-06-04T05:43:53;13.25;;;12.15;;
54641;SDS011;40536;53.194;5.728;2023-06-04T05:46:20;15.73;;;14.13;;
54641;SDS011;40536;53.194;5.728;2023-06-04T05:48:46;17.60;;;16.02;;
54641;SDS011;40536;53.194;5.728;2023-06-04T05:51:15;22.85;;;21.33;;
54641;SDS011;40536;53.194;5.728;2023-06-04T05:53:40;28.35;;;26.42;;
54641;SDS011;40536;53.194;5.728;2023-06-04T05:56:07;25.05;;;23.35;;
54641;SDS011;40536;53.194;5.728;2023-06-04T05:58:33;24.92;;;22.88;;
54641;SDS011;40536;53.194;5.728;2023-06-04T06:00:59;19.60;;;17.92;;
54641;SDS011;40536;53.194;5.728;2023-06-04T06:03:25;24.25;;;22.23;;
54641;SDS011;40536;53.194;5.728;2023-06-04T06:05:52;25.00;;;23.02;;
54641;SDS011;40536;53.194;5.728;2023-06-04T06:08:19;29.75;;;27.25;;
54641;SDS011;40536;53.194;5.728;2023-06-04T06:10:45;26.27;;;24.35;;
54641;SDS011;40536;53.194;5.728;2023-06-04T06:13:11;27.60;;;25.55;;
54641;SDS011;40536;53.194;5.728;2023-06-04T06:15:36;27.10;;;24.90;;
54641;SDS011;40536;53.194;5.728;2023-06-04T06:18:02;23.85;;;21.75;;
54641;SDS011;40536;53.194;5.728;2023-06-04T06:20:27;22.15;;;20.17;;
54641;SDS011;40536;53.194;5.728;2023-06-04T06:22:54;24.92;;;22.73;;
54641;SDS011;40536;53.194;5.728;2023-06-04T06:25:20;27.45;;;25.73;;
54641;SDS011;40536;53.194;5.728;2023-06-04T06:27:46;28.25;;;26.17;;
54641;SDS011;40536;53.194;5.728;2023-06-04T06:30:13;27.80;;;25.67;;
54641;SDS011;40536;53.194;5.728;2023-06-04T06:32:39;23.75;;;21.63;;
54641;SDS011;40536;53.194;5.728;2023-06-04T06:35:05;24.35;;;22.30;;
54641;SDS011;40536;53.194;5.728;2023-06-04T06:37:32;23.83;;;22.23;;
54641;SDS011;40536;53.194;5.728;2023-06-04T06:39:58;19.52;;;17.85;;
54641;SDS011;40536;53.194;5.728;2023-06-04T06:42:31;20.92;;;19.05;;
54641;SDS011;40536;53.194;5.728;2023-06-04T06:44:58;12.50;;;11.27;;
54641;SDS011;40536;53.194;5.728;2023-06-04T06:47:23;12.43;;;11.10;;
54641;SDS011;40536;53.194;5.728;2023-06-04T06:49:49;12.23;;;10.93;;
54641;SDS011;40536;53.194;5.728;2023-06-04T06:52:15;11.73;;;10.48;;
54641;SDS011;40536;53.194;5.728;2023-06-04T06:54:44;12.32;;;10.48;;
54641;SDS011;40536;53.194;5.728;2023-06-04T06:57:10;11.23;;;9.57;;
54641;SDS011;40536;53.194;5.728;2023-06-04T06:59:36;11.65;;;10.57;;
54641;SDS011;40536;53.194;5.728;2023-06-04T07:02:02;9.85;;;8.85;;
54641;SDS011;40536;53.194;5.728;2023-06-04T07:04:29;13.52;;;9.10;;
54641;SDS011;40536;53.194;5.728;2023-06-04T07:06:54;12.30;;;10.85;;
54641;SDS011;40536;53.194;5.728;2023-06-04T07:09:20;15.18;;;13.20;;
54641;SDS011;40536;53.194;5.728;2023-06-04T07:11:46;17.00;;;14.88;;
54641;SDS011;40536;53.194;5.728;2023-06-04T07:14:11;16.08;;;14.77;;
54641;SDS011;40536;53.194;5.728;2023-06-04T07:16:37;16.30;;;14.90;;
54641;SDS011;40536;53.194;5.728;2023-06-04T07:19:02;8.48;;;7.68;;
54641;SDS011;40536;53.194;5.728;2023-06-04T07:21:28;10.35;;;9.02;;
54641;SDS011;40536;53.194;5.728;2023-06-04T07:23:54;10.18;;;6.82;;
54641;SDS011;40536;53.194;5.728;2023-06-04T07:26:21;11.02;;;6.95;;
54641;SDS011;40536;53.194;5.728;2023-06-04T07:28:46;9.90;;;7.25;;
54641;SDS011;40536;53.194;5.728;2023-06-04T07:31:15;7.22;;;5.95;;
54641;SDS011;40536;53.194;5.728;2023-06-04T07:33:42;12.73;;;6.57;;
54641;SDS011;40536;53.194;5.728;2023-06-04T07:36:14;10.25;;;6.80;;
54641;SDS011;40536;53.194;5.728;2023-06-04T07:38:41;8.80;;;6.60;;
54641;SDS011;40536;53.194;5.728;2023-06-04T07:41:08;10.32;;;7.53;;
54641;SDS011;40536;53.194;5.728;2023-06-04T07:43:34;10.30;;;6.68;;
54641;SDS011;40536;53.194;5.728;2023-06-04T07:46:01;10.43;;;6.93;;
54641;SDS011;40536;53.194;5.728;2023-06-04T07:48:30;7.90;;;6.47;;
54641;SDS011;40536;53.194;5.728;2023-06-04T07:50:59;9.20;;;6.78;;
54641;SDS011;40536;53.194;5.728;2023-06-04T07:53:26;10.27;;;6.60;;
54641;SDS011;40536;53.194;5.728;2023-06-04T07:55:52;8.30;;;7.00;;
54641;SDS011;40536;53.194;5.728;2023-06-04T07:58:18;10.48;;;7.43;;
54641;SDS011;40536;53.194;5.728;2023-06-04T08:00:44;9.02;;;6.55;;
54641;SDS011;40536;53.194;5.728;2023-06-04T08:03:10;11.30;;;8.70;;
54641;SDS011;40536;53.194;5.728;2023-06-04T08:05:36;12.73;;;11.52;;
54641;SDS011;40536;53.194;5.728;2023-06-04T08:08:01;9.63;;;7.30;;
54641;SDS011;40536;53.194;5.728;2023-06-04T08:10:28;9.00;;;8.20;;
54641;SDS011;40536;53.194;5.728;2023-06-04T08:12:54;12.02;;;9.35;;
54641;SDS011;40536;53.194;5.728;2023-06-04T08:15:20;11.45;;;10.45;;
54641;SDS011;40536;53.194;5.728;2023-06-04T08:17:46;10.88;;;8.73;;
54641;SDS011;40536;53.194;5.728;2023-06-04T08:20:11;11.00;;;9.07;;
54641;SDS011;40536;53.194;5.728;2023-06-04T08:22:38;8.80;;;7.78;;
54641;SDS011;40536;53.194;5.728;2023-06-04T08:25:06;14.02;;;9.30;;
54641;SDS011;40536;53.194;5.728;2023-06-04T08:27:32;10.35;;;9.43;;
54641;SDS011;40536;53.194;5.728;2023-06-04T08:29:57;9.85;;;8.90;;
54641;SDS011;40536;53.194;5.728;2023-06-04T08:32:23;10.77;;;9.80;;
54641;SDS011;40536;53.194;5.728;2023-06-04T08:34:49;9.98;;;9.10;;
54641;SDS011;40536;53.194;5.728;2023-06-04T08:37:16;10.70;;;9.60;;
54641;SDS011;40536;53.194;5.728;2023-06-04T08:39:42;12.07;;;10.98;;
54641;SDS011;40536;53.194;5.728;2023-06-04T08:42:09;14.07;;;11.30;;
54641;SDS011;40536;53.194;5.728;2023-06-04T08:44:49;11.55;;;10.55;;
54641;SDS011;40536;53.194;5.728;2023-06-04T08:47:18;11.30;;;10.23;;
54641;SDS011;40536;53.194;5.728;2023-06-04T08:49:46;11.23;;;10.20;;
54641;SDS011;40536;53.194;5.728;2023-06-04T08:52:15;12.32;;;11.02;;
54641;SDS011;40536;53.194;5.728;2023-06-04T08:54:41;18.65;;;17.38;;
54641;SDS011;40536;53.194;5.728;2023-06-04T08:57:07;12.93;;;11.82;;
54641;SDS011;40536;53.194;5.728;2023-06-04T08:59:34;13.45;;;12.25;;
54641;SDS011;40536;53.194;5.728;2023-06-04T09:02:00;13.30;;;12.07;;
54641;SDS011;40536;53.194;5.728;2023-06-04T09:04:28;13.02;;;11.93;;
54641;SDS011;40536;53.194;5.728;2023-06-04T09:06:55;16.02;;;14.25;;
54641;SDS011;40536;53.194;5.728;2023-06-04T09:09:27;13.43;;;12.45;;
54641;SDS011;40536;53.194;5.728;2023-06-04T09:11:55;14.20;;;13.07;;
54641;SDS011;40536;53.194;5.728;2023-06-04T09:14:22;13.48;;;12.38;;
54641;SDS011;40536;53.194;5.728;2023-06-04T09:16:49;14.63;;;13.43;;
54641;SDS011;40536;53.194;5.728;2023-06-04T09:19:16;16.48;;;15.32;;
54641;SDS011;40536;53.194;5.728;2023-06-04T09:24:18;12.57;;;11.48;;
54641;SDS011;40536;53.194;5.728;2023-06-04T09:26:45;16.85;;;15.65;;
54641;SDS011;40536;53.194;5.728;2023-06-04T09:29:11;15.43;;;13.98;;
54641;SDS011;40536;53.194;5.728;2023-06-04T09:31:37;14.23;;;13.23;;
54641;SDS011;40536;53.194;5.728;2023-06-04T09:34:04;15.27;;;14.07;;
54641;SDS011;40536;53.194;5.728;2023-06-04T09:36:33;13.98;;;12.98;;
54641;SDS011;40536;53.194;5.728;2023-06-04T09:39:00;14.23;;;13.02;;
54641;SDS011;40536;53.194;5.728;2023-06-04T09:41:28;14.60;;;13.40;;
54641;SDS011;40536;53.194;5.728;2023-06-04T09:44:03;13.68;;;12.57;;
54641;SDS011;40536;53.194;5.728;2023-06-04T09:46:30;14.10;;;13.05;;
54641;SDS011;40536;53.194;5.728;2023-06-04T09:49:00;58.92;;;17.73;;
54641;SDS011;40536;53.194;5.728;2023-06-04T09:51:27;13.27;;;11.90;;
54641;SDS011;40536;53.194;5.728;2023-06-04T09:53:54;14.60;;;13.45;;
54641;SDS011;40536;53.194;5.728;2023-06-04T09:56:21;12.23;;;11.07;;
54641;SDS011;40536;53.194;5.728;2023-06-04T09:58:50;12.57;;;11.48;;
54641;SDS011;40536;53.194;5.728;2023-06-04T10:01:20;12.70;;;11.68;;
54641;SDS011;40536;53.194;5.728;2023-06-04T10:03:48;13.02;;;11.82;;
54641;SDS011;40536;53.194;5.728;2023-06-04T10:06:17;13.60;;;12.50;;
54641;SDS011;40536;53.194;5.728;2023-06-04T10:08:45;14.15;;;13.07;;
54641;SDS011;40536;53.194;5.728;2023-06-04T10:11:11;13.63;;;12.45;;
54641;SDS011;40536;53.194;5.728;2023-06-04T10:13:45;14.88;;;13.55;;
54641;SDS011;40536;53.194;5.728;2023-06-04T10:16:17;17.52;;;16.23;;
54641;SDS011;40536;53.194;5.728;2023-06-04T10:18:45;16.95;;;15.75;;
54641;SDS011;40536;53.194;5.728;2023-06-04T10:21:13;14.60;;;13.43;;
54641;SDS011;40536;53.194;5.728;2023-06-04T10:23:40;17.33;;;15.75;;
54641;SDS011;40536;53.194;5.728;2023-06-04T10:26:10;15.38;;;14.27;;
54641;SDS011;40536;53.194;5.728;2023-06-04T10:28:42;15.43;;;14.38;;
54641;SDS011;40536;53.194;5.728;2023-06-04T10:31:08;16.30;;;15.10;;
54641;SDS011;40536;53.194;5.728;2023-06-04T10:33:35;14.40;;;13.30;;
54641;SDS011;40536;53.194;5.728;2023-06-04T10:36:15;15.75;;;14.68;;
54641;SDS011;40536;53.194;5.728;2023-06-04T10:38:45;13.45;;;12.45;;
54641;SDS011;40536;53.194;5.728;2023-06-04T10:41:15;15.10;;;13.68;;
54641;SDS011;40536;53.194;5.728;2023-06-04T10:43:46;17.98;;;13.25;;
54641;SDS011;40536;53.194;5.728;2023-06-04T10:46:15;15.55;;;14.45;;
54641;SDS011;40536;53.194;5.728;2023-06-04T10:48:45;13.77;;;12.75;;
54641;SDS011;40536;53.194;5.728;2023-06-04T10:51:15;16.13;;;14.77;;
54641;SDS011;40536;53.194;5.728;2023-06-04T10:54:02;15.55;;;14.15;;
54641;SDS011;40536;53.194;5.728;2023-06-04T10:56:32;13.68;;;12.65;;
54641;SDS011;40536;53.194;5.728;2023-06-04T10:59:15;14.13;;;13.02;;
54641;SDS011;40536;53.194;5.728;2023-06-04T11:01:42;13.90;;;12.75;;
54641;SDS011;40536;53.194;5.728;2023-06-04T11:07:06;13.02;;;12.02;;
54641;SDS011;40536;53.194;5.728;2023-06-04T11:09:36;14.73;;;13.73;;
54641;SDS011;40536;53.194;5.728;2023-06-04T11:12:03;12.40;;;11.40;;
54641;SDS011;40536;53.194;5.728;2023-06-04T11:14:30;12.45;;;11.45;;
54641;SDS011;40536;53.194;5.728;2023-06-04T11:16:55;12.45;;;11.55;;
54641;SDS011;40536;53.194;5.728;2023-06-04T11:19:22;12.13;;;11.13;;
54641;SDS011;40536;53.194;5.728;2023-06-04T11:21:49;15.57;;;14.40;;
54641;SDS011;40536;53.194;5.728;2023-06-04T11:24:16;15.27;;;14.18;;
54641;SDS011;40536;53.194;5.728;2023-06-04T11:26:42;12.57;;;11.68;;
54641;SDS011;40536;53.194;5.728;2023-06-04T11:29:08;11.65;;;10.65;;
54641;SDS011;40536;53.194;5.728;2023-06-04T11:31:45;12.90;;;11.82;;
54641;SDS011;40536;53.194;5.728;2023-06-04T11:34:28;13.23;;;12.13;;
54641;SDS011;40536;53.194;5.728;2023-06-04T11:39:21;12.52;;;11.52;;
54641;SDS011;40536;53.194;5.728;2023-06-04T11:41:47;14.65;;;13.55;;
54641;SDS011;40536;53.194;5.728;2023-06-04T11:44:17;15.18;;;14.10;;
54641;SDS011;40536;53.194;5.728;2023-06-04T11:46:44;13.75;;;12.60;;
54641;SDS011;40536;53.194;5.728;2023-06-04T11:49:16;17.08;;;15.65;;
54641;SDS011;40536;53.194;5.728;2023-06-04T11:51:50;18.55;;;17.30;;
54641;SDS011;40536;53.194;5.728;2023-06-04T11:54:17;16.17;;;15.13;;
54641;SDS011;40536;53.194;5.728;2023-06-04T11:56:43;17.90;;;16.60;;
54641;SDS011;40536;53.194;5.728;2023-06-04T11:59:13;16.08;;;14.98;;
54641;SDS011;40536;53.194;5.728;2023-06-04T12:01:41;14.85;;;13.73;;
54641;SDS011;40536;53.194;5.728;2023-06-04T12:04:14;17.42;;;16.17;;
54641;SDS011;40536;53.194;5.728;2023-06-04T12:06:54;17.05;;;15.80;;
54641;SDS011;40536;53.194;5.728;2023-06-04T12:09:24;16.15;;;15.00;;
54641;SDS011;40536;53.194;5.728;2023-06-04T12:12:00;19.25;;;17.65;;
54641;SDS011;40536;53.194;5.728;2023-06-04T12:14:28;17.20;;;16.00;;
54641;SDS011;40536;53.194;5.728;2023-06-04T12:17:15;14.43;;;13.43;;
54641;SDS011;40536;53.194;5.728;2023-06-04T12:19:46;16.02;;;14.82;;
54641;SDS011;40536;53.194;5.728;2023-06-04T12:22:16;14.15;;;13.13;;
54641;SDS011;40536;53.194;5.728;2023-06-04T12:24:50;17.52;;;16.25;;
54641;SDS011;40536;53.194;5.728;2023-06-04T12:27:24;16.05;;;14.80;;
54641;SDS011;40536;53.194;5.728;2023-06-04T12:29:54;16.70;;;15.65;;
54641;SDS011;40536;53.194;5.728;2023-06-04T12:32:27;17.35;;;16.25;;
54641;SDS011;40536;53.194;5.728;2023-06-04T12:34:53;16.52;;;15.48;;
54641;SDS011;40536;53.194;5.728;2023-06-04T12:37:20;21.20;;;19.88;;
54641;SDS011;40536;53.194;5.728;2023-06-04T12:39:46;15.55;;;14.43;;
54641;SDS011;40536;53.194;5.728;2023-06-04T12:42:12;15.02;;;13.93;;
54641;SDS011;40536;53.194;5.728;2023-06-04T12:44:38;16.25;;;15.18;;
54641;SDS011;40536;53.194;5.728;2023-06-04T12:47:05;15.32;;;14.32;;
54641;SDS011;40536;53.194;5.728;2023-06-04T12:49:31;16.23;;;15.02;;
54641;SDS011;40536;53.194;5.728;2023-06-04T12:51:56;19.00;;;17.75;;
54641;SDS011;40536;53.194;5.728;2023-06-04T12:54:22;16.48;;;15.30;;
54641;SDS011;40536;53.194;5.728;2023-06-04T12:56:48;15.82;;;14.73;;
54641;SDS011;40536;53.194;5.728;2023-06-04T12:59:14;15.25;;;14.25;;
54641;SDS011;40536;53.194;5.728;2023-06-04T13:01:40;16.55;;;15.50;;
54641;SDS011;40536;53.194;5.728;2023-06-04T13:04:06;14.75;;;13.75;;
54641;SDS011;40536;53.194;5.728;2023-06-04T13:06:33;14.85;;;13.38;;
54641;SDS011;40536;53.194;5.728;2023-06-04T13:09:00;15.75;;;14.70;;
54641;SDS011;40536;53.194;5.728;2023-06-04T13:11:26;13.98;;;12.95;;
54641;SDS011;40536;53.194;5.728;2023-06-04T13:13:52;14.32;;;13.10;;
54641;SDS011;40536;53.194;5.728;2023-06-04T13:16:18;13.50;;;12.55;;
54641;SDS011;40536;53.194;5.728;2023-06-04T13:18:43;16.20;;;15.20;;
54641;SDS011;40536;53.194;5.728;2023-06-04T13:21:09;14.68;;;13.38;;
54641;SDS011;40536;53.194;5.728;2023-06-04T13:23:35;14.57;;;13.57;;
54641;SDS011;40536;53.194;5.728;2023-06-04T13:26:00;16.90;;;15.70;;
54641;SDS011;40536;53.194;5.728;2023-06-04T13:28:26;18.30;;;17.05;;
54641;SDS011;40536;53.194;5.728;2023-06-04T13:30:52;13.90;;;13.00;;
54641;SDS011;40536;53.194;5.728;2023-06-04T13:33:18;19.15;;;17.92;;
54641;SDS011;40536;53.194;5.728;2023-06-04T13:35:45;14.52;;;13.20;;
54641;SDS011;40536;53.194;5.728;2023-06-04T13:38:11;16.85;;;15.60;;
54641;SDS011;40536;53.194;5.728;2023-06-04T13:40:37;16.58;;;15.25;;
54641;SDS011;40536;53.194;5.728;2023-06-04T13:43:04;19.88;;;18.40;;
54641;SDS011;40536;53.194;5.728;2023-06-04T13:45:31;17.02;;;15.73;;
54641;SDS011;40536;53.194;5.728;2023-06-04T13:47:57;18.58;;;17.17;;
54641;SDS011;40536;53.194;5.728;2023-06-04T13:50:27;21.23;;;19.60;;
54641;SDS011;40536;53.194;5.728;2023-06-04T13:52:53;24.30;;;22.70;;
54641;SDS011;40536;53.194;5.728;2023-06-04T13:55:19;17.77;;;16.55;;
54641;SDS011;40536;53.194;5.728;2023-06-04T13:57:44;19.45;;;18.05;;
54641;SDS011;40536;53.194;5.728;2023-06-04T14:00:10;15.15;;;14.05;;
54641;SDS011;40536;53.194;5.728;2023-06-04T14:02:39;15.30;;;14.20;;
54641;SDS011;40536;53.194;5.728;2023-06-04T14:05:04;18.17;;;16.95;;
54641;SDS011;40536;53.194;5.728;2023-06-04T14:07:30;22.00;;;20.40;;
54641;SDS011;40536;53.194;5.728;2023-06-04T14:09:56;18.20;;;16.92;;
54641;SDS011;40536;53.194;5.728;2023-06-04T14:12:22;16.60;;;15.35;;
54641;SDS011;40536;53.194;5.728;2023-06-04T14:14:48;17.73;;;16.23;;
54641;SDS011;40536;53.194;5.728;2023-06-04T14:17:14;19.20;;;17.70;;
54641;SDS011;40536;53.194;5.728;2023-06-04T14:19:40;22.10;;;20.73;;
54641;SDS011;40536;53.194;5.728;2023-06-04T14:22:06;15.98;;;14.93;;
54641;SDS011;40536;53.194;5.728;2023-06-04T14:24:32;16.90;;;15.75;;
54641;SDS011;40536;53.194;5.728;2023-06-04T14:26:58;18.70;;;17.50;;
54641;SDS011;40536;53.194;5.728;2023-06-04T14:29:24;19.35;;;17.95;;
54641;SDS011;40536;53.194;5.728;2023-06-04T14:31:49;18.45;;;17.25;;
54641;SDS011;40536;53.194;5.728;2023-06-04T14:34:15;18.75;;;17.40;;
54641;SDS011;40536;53.194;5.728;2023-06-04T14:36:41;24.25;;;22.73;;